Date,TemperatureHighF,TemperatureAvgF,TemperatureLowF,DewpointHighF,DewpointAvgF,DewpointLowF,HumidityHigh,HumidityAvg,HumidityLow,PressureMaxIn,PressureMinIn,WindSpeedMaxMPH,WindSpeedAvgMPH,GustSpeedMaxMPH,PrecipitationSumIn
2013-1-2,32.7,30.0,22.6,29.8,17.7,12.1,91,60,52,30.17,30.00,15,4,18,0.00
2013-1-3,33.2,28.6,21.7,21.6,17.9,14.7,75,64,52,30.20,30.06,17,3,17,0.00
2013-1-4,39.2,35.3,32.1,26.0,23.9,21.4,71,63,54,30.08,29.93,23,5,23,0.00
2013-1-5,43.0,35.9,29.8,26.9,24.4,21.1,82,63,50,30.27,30.00,21,4,21,0.00
2013-1-6,45.7,39.3,33.2,33.8,30.3,26.2,90,71,57,30.22,29.97,16,3,16,0.00
2013-1-7,45.7,38.7,31.6,32.8,28.0,22.8,83,66,45,30.40,30.04,12,2,12,0.00
2013-1-8,48.6,39.7,29.8,34.5,31.0,25.6,88,72,57,30.43,30.33,20,3,20,0.00
2013-1-9,49.6,41.5,30.4,40.9,34.8,27.8,92,78,63,30.39,30.11,20,3,20,0.00
2013-1-10,47.8,42.9,35.5,35.8,28.4,25.8,71,57,42,30.55,30.20,17,3,17,0.00
2013-1-11,44.2,38.4,31.9,43.3,33.5,26.7,97,83,68,30.54,30.12,8,1,8,0.53
2013-1-12,44.1,43.2,41.6,43.4,42.6,41.1,98,98,97,30.18,30.08,5,2,14,0.12
2013-1-13,49.1,45.1,40.2,48.4,44.4,39.7,98,97,94,30.16,30.01,4,1,13,0.00
2013-1-14,56.2,49.2,37.7,54.0,45.0,34.0,99,86,66,30.29,29.95,7,3,21,0.07
2013-1-15,38.5,37.7,34.8,34.6,29.0,27.3,92,71,65,30.34,30.23,9,3,14,0.12
2013-1-16,37.6,34.8,32.8,36.4,33.7,29.4,98,96,76,30.23,29.80,14,3,14,0.72
2013-1-17,44.2,39.6,34.3,35.8,31.1,24.0,93,72,56,30.09,29.90,16,3,16,0.06
2013-1-18,34.2,27.9,24.5,24.0,13.5,6.7,69,55,39,30.49,30.01,21,4,21,0.00
2013-1-19,51.3,41.6,28.5,35.4,26.1,15.5,70,55,39,30.41,29.92,27,7,29,0.00
2013-1-20,54.3,43.8,30.5,33.0,26.0,13.6,70,51,25,30.04,29.68,28,7,28,0.00
2013-1-21,30.5,29.1,28.9,14.1,13.6,13.1,52,52,49,30.10,29.83,14,2,14,0.00
2013-1-22,29.0,25.0,14.9,13.6,8.6,-4.5,52,49,37,30.20,29.82,22,3,22,0.00
2013-1-23,14.9,13.0,11.9,-0.2,-1.5,-6.5,56,52,41,30.25,30.16,16,4,16,0.00
2013-1-24,24.1,20.3,16.3,3.5,1.7,-0.1,54,44,36,30.39,30.21,24,8,24,0.00
2013-1-25,25.7,19.1,14.5,18.9,8.4,1.8,90,64,44,30.42,30.07,19,3,19,0.00
2013-1-26,19.3,17.7,17.5,15.0,13.0,12.6,84,81,81,30.37,30.04,12,2,12,0.00
2013-1-27,17.5,17.5,17.5,12.7,12.7,12.7,81,81,81,30.52,30.36,2,2,2,0.00
2013-1-28,35.6,24.2,0.0,34.2,21.2,0.0,95,81,81,30.49,30.00,11,2,11,0.22
2013-1-29,35.6,35.6,35.6,34.3,34.3,34.3,95,95,95,30.16,29.99,2,2,8,0.00
2013-1-30,35.6,35.6,35.6,34.3,34.3,34.3,95,95,95,30.10,29.39,0,0,0,0.00
2013-1-31,35.6,35.6,35.6,34.3,34.3,34.3,95,95,95,29.39,29.04,0,0,0,0.00